Hlavní strana
METAR-TAF:

METAR-TAF

Letiště :

Ålesund, Norsko

zeměpisná šířka: 62-34N, zeměpisná délka: 006-07E, výška: 2 m

Aktuální stav počasí

Zpráva byla vytvořena před 31 minutami, v 16:20 UTC
Jihojihozápadní vítr 10 kt
Teplota 4°C
Vlhkost vzduchu 70%
Tlak 1028 hPa
Viditelnost 10 km a více
Skoro jasno ve výšce 3300 ft
Polojasno ve výšce 8000 ft

METAR: ENAL 221620Z 20010KT 9999 FEW033 SCT080 04/M01 Q1028

Čas: 17:51 (16:51 UTC)

Předpověď počasí

Zpráva byla vytvořena před 2 hodinami a 51 minutami, v 14:00 UTC
Předpověď platná od 22 v 15 UTC do 22 v 23 UTC
Západojihozápadní vítr 12 kt
Viditelnost 10 km a více
Skoro jasno ve výšce 1200 ft, Vertikální cumulus.
Oblačno až skoro zataženo ve výšce 3500 ft
slabé dešťové přeháňky
Změna
od 22 v 17 UTC do 22 v 19 UTC
Jižní vítr 15 kt
Dočasný
od 22 v 21 UTC do 22 v 23 UTC
Jihozápadní vítr 18 kt s nárazy do 28 kt

TAF: ENAL 221400Z 2215/2223 25012KT 9999 -SHRA FEW012TCU BKN035 BECMG 2217/2219 19015KT TEMPO 2221/2223 22018G28KT

Stav a předpovědi počasí z více než 4 000 letišť (zprávy METAR a TAF).

Červené a žluté tečky na mapě představují dostupné meteorologické stanice.

Když kurzor umístíte na tečku, zobrazí se název stanice.

Pak kliknutím zobrazíte stav a předpověď počasí.

Chcete-li změnit mapu, kliknutím na zelené tlačítko se znaménkem +mapu přiblížíte, kliknutím na zelené tlačítko se znaménkem – mapu oddálíte a kliknutím na zelené šipky přejdete na sousední mapy.


METAR-TAF: